Time;durP1;ratioP1;P1;durP2;ratioP2;P2;SDS_P1;SDS_P2;PMS_P1;PMS_P2;Temp;Humidity;BMP_temperature;BMP_pressure;BME280_temperature;BME280_humidity;BME280_pressure;Samples;Min_cycle;Max_cycle;Signal;HPM_P1;HPM_P2
2022/03/03 00:02:31;;;;;;;67.37;33.27;;;2.00;99.90;;;;;;5015304;28;20232;-73
2022/03/03 00:05:20;;;;;;;64.07;34.10;;;2.00;99.90;;;;;;5023854;28;20276;-74
2022/03/03 00:08:09;;;;;;;77.40;35.03;;;2.00;99.90;;;;;;5031282;28;20217;-73
2022/03/03 00:11:01;;;;;;;71.53;33.83;;;2.00;99.90;;;;;;5034943;28;20650;-74
2022/03/03 00:13:52;;;;;;;78.33;35.57;;;2.00;99.90;;;;;;5032149;28;20225;-75
2022/03/03 00:16:41;;;;;;;69.67;33.20;;;1.90;99.90;;;;;;5032418;28;20233;-75
2022/03/03 00:19:30;;;;;;;70.30;34.00;;;1.90;99.90;;;;;;5022436;28;20278;-74
2022/03/03 00:22:18;;;;;;;72.43;34.87;;;1.80;99.90;;;;;;5040121;28;20255;-74
2022/03/03 00:25:08;;;;;;;72.77;34.53;;;1.80;99.90;;;;;;5025890;28;20344;-74
2022/03/03 00:27:57;;;;;;;71.03;34.37;;;1.90;99.90;;;;;;5031682;28;20229;-74
2022/03/03 00:30:50;;;;;;;80.13;36.90;;;1.80;99.90;;;;;;5020007;28;20244;-74
2022/03/03 00:33:38;;;;;;;74.50;36.13;;;1.90;99.90;;;;;;5037839;28;20217;-74
2022/03/03 00:36:28;;;;;;;76.30;35.77;;;2.00;99.90;;;;;;5023712;28;20384;-74
2022/03/03 00:39:16;;;;;;;73.13;36.20;;;2.00;99.90;;;;;;5035277;28;20225;-74
2022/03/03 00:42:05;;;;;;;75.73;36.93;;;2.00;99.90;;;;;;5047815;28;20223;-76
2022/03/03 00:44:54;;;;;;;81.03;35.57;;;2.00;99.90;;;;;;5026533;28;20236;-76
2022/03/03 00:47:44;;;;;;;80.13;37.77;;;2.00;99.90;;;;;;5027153;28;20257;-74
2022/03/03 00:50:33;;;;;;;80.33;37.80;;;2.00;99.90;;;;;;5028583;28;20699;-74
2022/03/03 00:53:23;;;;;;;79.77;36.83;;;2.00;99.90;;;;;;5034339;28;20335;-74
2022/03/03 00:56:11;;;;;;;82.53;37.27;;;2.00;99.90;;;;;;5036411;28;20252;-74
2022/03/03 00:59:00;;;;;;;74.43;36.20;;;2.00;99.90;;;;;;5031664;28;20230;-76
2022/03/03 01:01:49;;;;;;;81.67;37.30;;;2.00;99.90;;;;;;5001683;28;20214;-74
2022/03/03 01:04:39;;;;;;;77.83;36.47;;;2.00;99.90;;;;;;5018575;28;20229;-75
2022/03/03 01:07:32;;;;;;;75.30;37.20;;;2.10;99.90;;;;;;5015848;28;20229;-75
2022/03/03 01:10:21;;;;;;;69.87;35.90;;;2.10;99.90;;;;;;5000265;28;20356;-75
2022/03/03 01:13:10;;;;;;;75.23;36.47;;;2.00;99.90;;;;;;5015761;28;20218;-74
2022/03/03 01:15:58;;;;;;;82.57;38.37;;;2.00;99.90;;;;;;5014255;28;20736;-74
2022/03/03 01:18:47;;;;;;;72.73;35.40;;;1.90;99.90;;;;;;5003807;28;20222;-75
2022/03/03 01:21:37;;;;;;;75.27;36.77;;;1.70;99.90;;;;;;4998832;28;20233;-74
2022/03/03 01:24:26;;;;;;;80.70;38.20;;;1.70;99.90;;;;;;5008177;28;20256;-74
2022/03/03 01:27:15;;;;;;;76.60;37.43;;;1.70;99.90;;;;;;5002437;28;20241;-74
2022/03/03 01:30:04;;;;;;;79.90;36.17;;;1.70;99.90;;;;;;5008535;28;20933;-74
2022/03/03 01:32:53;;;;;;;85.67;37.73;;;1.60;99.90;;;;;;5001718;28;20232;-73
2022/03/03 01:35:42;;;;;;;71.47;36.47;;;1.50;99.90;;;;;;5002665;28;20225;-74
2022/03/03 01:38:32;;;;;;;80.37;37.80;;;1.50;99.90;;;;;;5012874;28;20226;-74
2022/03/03 01:41:21;;;;;;;75.33;37.90;;;1.40;99.90;;;;;;5015281;28;20229;-73
2022/03/03 01:44:10;;;;;;;89.87;39.87;;;1.40;99.90;;;;;;4993993;28;20226;-74
2022/03/03 01:47:00;;;;;;;77.33;38.23;;;1.30;99.90;;;;;;5011135;28;20228;-74
2022/03/03 01:49:50;;;;;;;80.47;41.83;;;1.40;99.90;;;;;;5003559;28;20221;-74
2022/03/03 01:52:38;;;;;;;81.80;38.57;;;1.40;99.90;;;;;;4999898;28;20226;-75
2022/03/03 01:55:28;;;;;;;77.00;38.90;;;1.30;99.90;;;;;;4992232;28;20226;-75
2022/03/03 01:58:18;;;;;;;87.00;39.80;;;1.30;99.90;;;;;;5012641;28;20227;-75
2022/03/03 02:01:09;;;;;;;84.13;40.57;;;1.30;99.90;;;;;;4997033;28;20225;-75
2022/03/03 02:03:58;;;;;;;80.63;38.70;;;1.30;99.90;;;;;;5000155;28;20893;-74
2022/03/03 02:06:47;;;;;;;78.43;39.57;;;1.30;99.90;;;;;;5016404;28;20225;-74
2022/03/03 02:09:36;;;;;;;81.23;39.57;;;1.30;99.90;;;;;;5004729;28;22014;-75
2022/03/03 02:12:26;;;;;;;81.83;38.27;;;1.30;99.90;;;;;;5005679;28;20213;-75
2022/03/03 02:15:18;;;;;;;82.13;38.27;;;1.30;99.90;;;;;;5005725;28;20229;-75
2022/03/03 02:18:07;;;;;;;81.90;38.07;;;1.30;99.90;;;;;;4999568;28;20217;-75
2022/03/03 02:20:56;;;;;;;80.70;39.07;;;1.40;99.90;;;;;;5013851;28;20217;-75
2022/03/03 02:23:45;;;;;;;82.70;38.80;;;1.40;99.90;;;;;;5001684;28;20226;-76
2022/03/03 02:26:34;;;;;;;79.50;39.60;;;1.30;99.90;;;;;;5016137;28;20310;-76
2022/03/03 02:29:22;;;;;;;77.17;37.67;;;1.30;99.90;;;;;;5004925;28;20232;-76
2022/03/03 02:32:12;;;;;;;77.63;38.33;;;1.10;99.90;;;;;;5015455;28;20997;-74
2022/03/03 02:35:00;;;;;;;79.97;39.33;;;1.20;99.90;;;;;;5026233;28;20228;-75
2022/03/03 02:37:52;;;;;;;81.07;39.17;;;1.20;99.90;;;;;;5019955;28;20332;-74
2022/03/03 02:40:41;;;;;;;80.83;38.47;;;1.10;99.90;;;;;;5005267;28;20234;-76
2022/03/03 02:43:30;;;;;;;77.90;38.60;;;1.00;99.90;;;;;;5004414;28;20739;-75
2022/03/03 02:46:20;;;;;;;84.50;39.33;;;1.00;99.90;;;;;;5020048;28;20218;-76
2022/03/03 02:49:09;;;;;;;83.60;39.53;;;1.00;99.90;;;;;;5020798;28;20232;-75
2022/03/03 02:51:57;;;;;;;78.93;39.50;;;1.00;99.90;;;;;;5009886;28;20632;-75
2022/03/03 02:54:47;;;;;;;87.17;39.83;;;1.00;99.90;;;;;;5005134;28;20226;-76
2022/03/03 02:57:54;;;;;;;84.23;39.57;;;1.00;99.90;;;;;;5001512;28;20222;-75
2022/03/03 03:00:44;;;;;;;75.03;37.60;;;1.00;99.90;;;;;;5018354;28;20978;-75
2022/03/03 03:03:33;;;;;;;81.30;38.93;;;1.00;99.90;;;;;;5025416;28;20308;-75
2022/03/03 03:06:22;;;;;;;74.03;37.33;;;1.10;99.90;;;;;;5040231;28;20221;-76
2022/03/03 03:09:10;;;;;;;76.17;38.03;;;0.90;99.90;;;;;;5039014;28;20213;-75
2022/03/03 03:12:00;;;;;;;83.43;39.27;;;0.90;99.90;;;;;;5034361;28;20368;-75
2022/03/03 03:14:49;;;;;;;80.10;39.33;;;0.90;99.90;;;;;;5034263;28;20228;-75
2022/03/03 03:17:37;;;;;;;80.03;39.23;;;0.90;99.90;;;;;;5036239;28;20231;-75
2022/03/03 03:20:26;;;;;;;74.63;37.27;;;0.90;99.90;;;;;;5031435;28;20729;-76
2022/03/03 03:23:17;;;;;;;76.93;38.37;;;1.00;99.90;;;;;;5006764;28;20601;-75
2022/03/03 03:26:05;;;;;;;75.07;38.07;;;1.00;99.90;;;;;;5028534;28;20252;-75
2022/03/03 03:28:55;;;;;;;76.37;38.60;;;0.90;99.90;;;;;;5000426;28;20221;-73
2022/03/03 03:31:44;;;;;;;74.77;37.10;;;0.90;99.90;;;;;;5013254;28;20739;-75
2022/03/03 03:34:32;;;;;;;79.23;38.30;;;0.90;99.90;;;;;;5020090;28;20244;-76
2022/03/03 03:37:21;;;;;;;75.53;38.13;;;1.00;99.90;;;;;;5022110;28;20374;-75
2022/03/03 03:40:10;;;;;;;78.40;37.93;;;1.00;99.90;;;;;;5032969;28;20213;-75
2022/03/03 03:42:59;;;;;;;83.80;39.70;;;0.90;99.90;;;;;;5033063;28;20216;-74
2022/03/03 03:45:49;;;;;;;85.47;39.00;;;0.90;99.90;;;;;;5034472;28;20923;-75
2022/03/03 03:48:38;;;;;;;77.67;38.67;;;0.90;99.90;;;;;;5021404;28;20244;-76
2022/03/03 03:51:26;;;;;;;75.70;38.90;;;0.90;99.90;;;;;;5036289;28;20217;-75
2022/03/03 03:54:15;;;;;;;76.07;38.93;;;0.80;99.90;;;;;;5034506;28;20224;-75
2022/03/03 03:57:04;;;;;;;80.60;38.60;;;0.80;99.90;;;;;;5024440;28;20230;-74
2022/03/03 03:59:52;;;;;;;84.47;40.17;;;0.80;99.90;;;;;;5026148;28;20270;-72
2022/03/03 04:02:43;;;;;;;76.60;38.43;;;0.80;99.90;;;;;;5028964;28;20230;-74
2022/03/03 04:05:32;;;;;;;77.83;39.10;;;0.70;99.90;;;;;;5006001;28;20638;-74
2022/03/03 04:08:21;;;;;;;82.80;39.83;;;0.70;99.90;;;;;;5011878;28;20232;-74
2022/03/03 04:11:09;;;;;;;79.43;39.43;;;0.70;99.90;;;;;;5015325;28;20250;-74
2022/03/03 04:13:58;;;;;;;80.03;39.83;;;0.70;99.90;;;;;;5012915;28;20233;-74
2022/03/03 04:16:47;;;;;;;76.27;38.67;;;0.70;99.90;;;;;;5003257;28;20239;-75
2022/03/03 04:19:37;;;;;;;78.60;37.77;;;0.60;99.90;;;;;;5015569;28;20565;-75
2022/03/03 04:22:26;;;;;;;80.97;40.17;;;0.60;99.90;;;;;;5004109;28;20224;-74
2022/03/03 04:25:14;;;;;;;81.13;39.83;;;0.50;99.90;;;;;;5014458;28;20240;-74
2022/03/03 04:28:03;;;;;;;80.07;39.57;;;0.60;99.90;;;;;;5013652;28;20216;-75
2022/03/03 04:30:55;;;;;;;90.80;41.00;;;0.60;99.90;;;;;;5015263;28;20314;-75
2022/03/03 04:33:45;;;;;;;83.93;40.47;;;0.60;99.90;;;;;;5012138;28;20233;-76
2022/03/03 04:36:35;;;;;;;84.33;40.67;;;0.60;99.90;;;;;;5001160;28;20282;-75
2022/03/03 04:39:25;;;;;;;85.97;40.70;;;0.50;99.90;;;;;;4998924;28;20222;-76
2022/03/03 04:42:13;;;;;;;85.73;42.07;;;0.50;99.90;;;;;;4994098;28;20220;-76
2022/03/03 04:45:02;;;;;;;90.47;40.97;;;0.50;99.90;;;;;;5013332;28;20226;-75
2022/03/03 04:47:52;;;;;;;87.10;42.20;;;0.40;99.90;;;;;;5001291;28;20214;-76
2022/03/03 04:50:40;;;;;;;94.50;43.73;;;0.50;99.90;;;;;;5014021;28;20752;-76
2022/03/03 04:53:31;;;;;;;81.87;41.30;;;0.40;99.90;;;;;;4999656;28;20226;-73
2022/03/03 04:56:19;;;;;;;80.50;41.03;;;0.40;99.90;;;;;;5012698;28;20271;-75
2022/03/03 04:59:08;;;;;;;88.50;44.63;;;0.40;99.90;;;;;;5001048;28;20235;-75
2022/03/03 05:02:00;;;;;;;98.83;44.93;;;0.40;99.90;;;;;;5029045;28;20366;-75
2022/03/03 05:04:53;;;;;;;97.07;43.63;;;0.40;99.90;;;;;;5034884;28;20283;-76
2022/03/03 05:07:41;;;;;;;96.47;44.20;;;0.40;99.90;;;;;;5036884;28;20219;-76
2022/03/03 05:10:31;;;;;;;88.83;44.07;;;0.30;99.90;;;;;;5035980;28;20236;-76
2022/03/03 05:13:20;;;;;;;100.53;45.63;;;0.30;99.90;;;;;;5002816;28;20246;-76
2022/03/03 05:16:09;;;;;;;101.67;47.27;;;0.30;99.90;;;;;;5015763;28;20245;-76
2022/03/03 05:19:02;;;;;;;107.90;48.53;;;0.30;99.90;;;;;;5034633;28;20759;-76
2022/03/03 05:21:51;;;;;;;115.70;50.60;;;0.30;99.90;;;;;;5021367;28;20230;-76
2022/03/03 05:24:39;;;;;;;104.00;47.93;;;0.30;99.90;;;;;;5025266;28;20220;-75
2022/03/03 05:27:29;;;;;;;107.90;48.90;;;0.30;99.90;;;;;;5039767;28;20236;-75
2022/03/03 05:30:18;;;;;;;110.47;50.40;;;0.30;99.90;;;;;;5021757;28;20227;-76
2022/03/03 05:33:07;;;;;;;107.60;48.90;;;0.20;99.90;;;;;;5039236;28;20221;-75
2022/03/03 05:36:01;;;;;;;112.70;51.80;;;0.20;99.90;;;;;;5029886;28;20230;-77
2022/03/03 05:38:49;;;;;;;118.97;50.67;;;0.20;99.90;;;;;;5040981;28;20228;-76
2022/03/03 05:41:38;;;;;;;124.97;52.53;;;0.30;99.90;;;;;;5051675;28;20231;-77
2022/03/03 05:44:29;;;;;;;116.03;50.93;;;0.30;99.90;;;;;;5018416;28;20231;-75
2022/03/03 05:47:19;;;;;;;124.60;54.53;;;0.30;99.90;;;;;;5024271;28;20235;-74
2022/03/03 05:50:12;;;;;;;117.40;51.13;;;0.40;99.90;;;;;;5022496;28;20230;-73
2022/03/03 05:53:01;;;;;;;111.97;51.50;;;0.40;99.90;;;;;;5032282;28;20224;-73
2022/03/03 05:55:53;;;;;;;112.83;52.33;;;0.30;99.90;;;;;;5025152;28;20235;-76
2022/03/03 05:58:49;;;;;;;113.37;51.67;;;0.40;99.90;;;;;;5024304;28;20287;-75
2022/03/03 06:01:42;;;;;;;115.43;52.47;;;0.50;99.90;;;;;;5029829;28;20221;-75
2022/03/03 06:04:35;;;;;;;123.00;53.13;;;0.50;99.90;;;;;;5018209;28;20223;-73
2022/03/03 06:07:26;;;;;;;133.33;55.50;;;0.50;99.90;;;;;;5042711;28;20595;-73
2022/03/03 06:10:21;;;;;;;122.07;56.87;;;0.50;99.90;;;;;;5037039;28;20704;-74
2022/03/03 06:13:20;;;;;;;127.33;57.60;;;0.40;99.90;;;;;;5033420;28;20225;-73
2022/03/03 06:16:09;;;;;;;136.50;60.17;;;0.50;99.90;;;;;;5021631;28;20220;-73
2022/03/03 06:19:00;;;;;;;134.50;60.07;;;0.50;99.90;;;;;;5037042;28;20218;-73
2022/03/03 06:21:49;;;;;;;137.87;59.80;;;0.50;99.90;;;;;;5030119;28;20232;-73
2022/03/03 06:24:39;;;;;;;129.37;60.33;;;0.50;99.90;;;;;;5029216;28;20224;-73
2022/03/03 06:27:28;;;;;;;148.23;60.97;;;0.60;99.90;;;;;;5009170;28;20332;-73
2022/03/03 06:30:17;;;;;;;137.73;58.33;;;0.60;99.90;;;;;;5037046;28;20288;-73
2022/03/03 06:33:06;;;;;;;125.00;58.73;;;0.60;99.90;;;;;;5040446;28;20584;-73
2022/03/03 06:35:56;;;;;;;128.17;58.07;;;0.60;99.90;;;;;;5025428;28;20221;-73
2022/03/03 06:38:44;;;;;;;139.17;60.17;;;0.60;99.90;;;;;;5037762;28;20224;-73
2022/03/03 06:41:33;;;;;;;125.70;57.33;;;0.70;99.90;;;;;;5024295;28;20308;-74
2022/03/03 06:44:22;;;;;;;130.23;57.70;;;0.70;99.90;;;;;;5023350;28;20217;-72
2022/03/03 06:47:11;;;;;;;149.10;61.10;;;0.70;99.90;;;;;;5029756;28;20229;-73
2022/03/03 06:49:59;;;;;;;132.93;57.60;;;0.70;99.90;;;;;;5016705;28;20700;-71
2022/03/03 06:52:54;;;;;;;113.30;54.17;;;0.80;99.90;;;;;;5031839;28;20217;-72
2022/03/03 06:55:45;;;;;;;113.90;54.27;;;0.70;99.90;;;;;;5035813;28;20416;-74
2022/03/03 06:58:36;;;;;;;145.90;57.77;;;0.90;99.90;;;;;;5034106;28;20236;-72
2022/03/03 07:01:25;;;;;;;116.97;53.13;;;1.00;99.90;;;;;;5034721;28;20232;-73
2022/03/03 07:04:15;;;;;;;125.23;54.03;;;1.20;99.90;;;;;;5029279;28;20252;-74
2022/03/03 07:07:04;;;;;;;113.00;52.03;;;1.30;99.90;;;;;;5022309;28;20651;-75
2022/03/03 07:09:55;;;;;;;115.03;53.10;;;1.30;99.90;;;;;;5026346;28;20226;-74
2022/03/03 07:12:43;;;;;;;111.97;53.27;;;1.40;99.90;;;;;;5022463;28;20222;-74
2022/03/03 07:15:35;;;;;;;118.33;52.80;;;1.50;99.90;;;;;;5037095;28;20212;-72
2022/03/03 07:18:33;;;;;;;119.17;55.10;;;1.50;99.90;;;;;;5024878;28;20723;-75
2022/03/03 07:21:30;;;;;;;111.17;53.30;;;1.60;99.90;;;;;;5027985;28;20218;-80
2022/03/03 07:24:27;;;;;;;113.43;50.93;;;1.70;99.90;;;;;;5031655;28;20225;-81
2022/03/03 07:27:21;;;;;;;112.53;51.07;;;1.70;99.90;;;;;;5020629;28;20228;-80
2022/03/03 07:30:13;;;;;;;110.73;52.40;;;1.80;99.90;;;;;;5024972;28;20228;-75
2022/03/03 07:33:12;;;;;;;103.47;48.83;;;1.90;99.90;;;;;;5039572;28;20983;-78
2022/03/03 07:36:03;;;;;;;109.27;49.53;;;1.90;99.90;;;;;;5021407;28;20895;-78
2022/03/03 07:38:57;;;;;;;101.90;49.00;;;2.00;99.90;;;;;;5033532;28;20216;-77
2022/03/03 07:41:47;;;;;;;96.77;47.67;;;2.10;99.90;;;;;;5030830;28;20243;-78
2022/03/03 07:44:37;;;;;;;106.13;48.70;;;2.20;99.90;;;;;;5029367;28;20218;-75
2022/03/03 07:47:27;;;;;;;101.33;49.47;;;2.30;99.90;;;;;;5025140;28;20233;-75
2022/03/03 07:50:16;;;;;;;107.67;49.80;;;2.50;99.90;;;;;;5026494;28;20225;-75
2022/03/03 07:53:10;;;;;;;106.70;47.13;;;2.50;99.90;;;;;;5021152;28;20324;-74
2022/03/03 07:56:04;;;;;;;95.70;45.67;;;2.60;99.90;;;;;;5023060;28;20703;-78
2022/03/03 07:59:02;;;;;;;79.87;40.20;;;2.70;99.90;;;;;;5037477;28;20276;-78
2022/03/03 08:01:54;;;;;;;88.53;40.30;;;2.80;99.90;;;;;;5026552;28;20228;-81
2022/03/03 08:04:45;;;;;;;97.93;42.60;;;2.90;99.90;;;;;;5025032;28;20710;-78
2022/03/03 08:07:40;;;;;;;85.40;42.77;;;3.00;99.90;;;;;;5037579;28;20317;-78
2022/03/03 08:10:30;;;;;;;83.47;41.27;;;3.30;99.90;;;;;;5026130;28;20742;-79
2022/03/03 08:13:19;;;;;;;83.87;41.27;;;3.90;99.90;;;;;;5028044;28;20223;-78
2022/03/03 08:16:08;;;;;;;82.57;39.93;;;7.10;93.00;;;;;;5014715;28;20365;-77
2022/03/03 08:19:00;;;;;;;78.53;39.03;;;7.20;82.50;;;;;;5025619;28;20604;-79
2022/03/03 08:21:49;;;;;;;79.93;39.83;;;6.20;82.90;;;;;;5017626;28;20319;-80
2022/03/03 08:24:43;;;;;;;74.53;39.03;;;5.70;85.80;;;;;;5020227;28;20217;-78
2022/03/03 08:27:34;;;;;;;64.33;32.97;;;5.30;86.50;;;;;;5037003;28;20231;-78
2022/03/03 08:30:23;;;;;;;64.17;33.20;;;5.10;84.50;;;;;;5027160;28;20838;-79
2022/03/03 08:33:19;;;;;;;56.37;30.97;;;6.10;84.00;;;;;;5025239;28;20312;-79
2022/03/03 08:36:21;;;;;;;61.07;32.30;;;7.90;73.80;;;;;;5022717;28;20260;-78
2022/03/03 08:39:11;;;;;;;57.00;31.57;;;6.90;74.50;;;;;;5021251;28;20225;-78
2022/03/03 08:42:02;;;;;;;53.53;28.63;;;6.70;74.80;;;;;;5036196;28;20217;-78
2022/03/03 08:45:10;;;;;;;56.23;29.73;;;8.90;71.70;;;;;;5040383;28;20221;-78
2022/03/03 08:48:02;;;;;;;61.00;32.57;;;10.80;65.60;;;;;;5039962;28;20236;-78
2022/03/03 08:50:53;;;;;;;56.13;30.53;;;12.10;61.30;;;;;;5031013;28;20253;-84
2022/03/03 08:53:43;;;;;;;50.07;29.10;;;12.80;57.70;;;;;;5028639;28;20242;-73
2022/03/03 08:56:32;;;;;;;53.20;28.27;;;11.90;57.40;;;;;;5029704;28;20259;-81
2022/03/03 08:59:24;;;;;;;52.97;27.97;;;10.70;59.00;;;;;;5025892;28;20268;-81
2022/03/03 09:02:17;;;;;;;53.43;30.60;;;12.40;58.50;;;;;;5024146;28;20219;-82
2022/03/03 09:05:07;;;;;;;54.70;30.27;;;12.90;56.80;;;;;;5032660;28;20221;-83
2022/03/03 09:07:55;;;;;;;60.60;31.27;;;13.70;55.70;;;;;;5035541;28;20540;-82
2022/03/03 09:10:45;;;;;;;57.08;30.52;;;14.30;54.40;;;;;;5037314;28;20365;-82
2022/03/03 09:13:34;;;;;;;54.85;29.92;;;14.70;53.70;;;;;;5044411;28;20576;-82
2022/03/03 09:16:23;;;;;;;58.80;31.53;;;13.10;53.60;;;;;;5039936;28;20239;-81
2022/03/03 09:19:12;;;;;;;55.47;30.80;;;10.40;57.30;;;;;;5010382;28;20224;-81
2022/03/03 09:22:00;;;;;;;57.87;32.27;;;9.10;60.50;;;;;;5028653;28;20219;-82
2022/03/03 09:24:49;;;;;;;54.90;31.00;;;8.20;63.60;;;;;;5042909;28;20219;-81
2022/03/03 09:27:39;;;;;;;56.37;29.87;;;7.70;66.50;;;;;;5043128;28;20231;-82
2022/03/03 09:30:28;;;;;;;58.73;30.70;;;7.40;67.90;;;;;;5040227;28;20228;-81
2022/03/03 09:33:17;;;;;;;52.50;29.03;;;7.10;68.20;;;;;;5007549;28;20213;-81
2022/03/03 09:36:06;;;;;;;55.87;31.10;;;6.80;68.70;;;;;;5038857;28;20229;-84
2022/03/03 09:38:54;;;;;;;62.70;31.17;;;6.50;69.60;;;;;;5042162;28;20683;-81
2022/03/03 09:41:43;;;;;;;59.03;29.73;;;6.50;70.40;;;;;;5042255;28;20236;-82
2022/03/03 09:44:33;;;;;;;56.53;29.90;;;6.10;70.90;;;;;;5039295;28;20225;-80
2022/03/03 09:47:22;;;;;;;55.93;30.47;;;6.20;71.30;;;;;;5030507;28;20259;-82
2022/03/03 09:50:10;;;;;;;60.13;31.40;;;6.30;71.40;;;;;;5041307;28;20244;-80
2022/03/03 09:52:59;;;;;;;56.83;30.30;;;6.30;71.50;;;;;;5026040;28;20216;-81
2022/03/03 09:55:49;;;;;;;57.47;28.20;;;6.40;71.00;;;;;;5041663;28;20244;-80
2022/03/03 09:58:38;;;;;;;46.83;25.43;;;6.20;71.10;;;;;;5029939;28;20327;-81
2022/03/03 10:01:30;;;;;;;48.20;24.33;;;6.00;71.10;;;;;;5035626;28;20304;-80
2022/03/03 10:04:21;;;;;;;50.10;24.77;;;5.80;71.90;;;;;;5032124;28;20244;-81
2022/03/03 10:07:11;;;;;;;50.43;24.00;;;6.00;71.40;;;;;;5041643;28;20236;-79
2022/03/03 10:10:00;;;;;;;45.00;22.90;;;5.80;71.60;;;;;;5031714;28;20235;-80
2022/03/03 10:12:57;;;;;;;37.80;21.03;;;5.40;71.20;;;;;;5040016;28;20682;-80
2022/03/03 10:15:47;;;;;;;40.73;22.27;;;5.50;71.70;;;;;;5027776;28;20231;-81
2022/03/03 10:18:38;;;;;;;42.70;22.87;;;5.60;72.30;;;;;;5040094;28;20216;-81
2022/03/03 10:21:28;;;;;;;42.57;22.37;;;5.70;71.70;;;;;;5041762;28;20614;-73
2022/03/03 10:24:19;;;;;;;45.50;22.67;;;5.40;71.90;;;;;;5038848;28;20245;-81
2022/03/03 10:27:08;;;;;;;38.40;21.50;;;5.40;72.00;;;;;;5028252;28;20781;-81
2022/03/03 10:29:57;;;;;;;47.63;24.20;;;5.60;72.30;;;;;;5025952;28;20312;-81
2022/03/03 10:32:47;;;;;;;45.00;25.13;;;5.60;72.50;;;;;;5031536;28;20225;-80
2022/03/03 10:35:37;;;;;;;49.40;23.37;;;5.60;72.70;;;;;;5051639;28;20242;-81
2022/03/03 10:38:26;;;;;;;47.87;22.63;;;5.40;73.10;;;;;;5042326;28;20228;-81
2022/03/03 10:41:32;;;;;;;45.53;23.47;;;5.50;72.70;;;;;;5038664;28;20795;-76
2022/03/03 10:44:24;;;;;;;42.67;22.07;;;5.50;72.50;;;;;;5039371;28;20216;-77
2022/03/03 10:47:15;;;;;;;40.07;21.83;;;5.60;72.00;;;;;;5038455;28;20220;-77
2022/03/03 10:50:05;;;;;;;40.63;22.13;;;5.60;72.90;;;;;;5034340;28;20698;-77
2022/03/03 10:53:10;;;;;;;43.50;21.80;;;5.60;72.30;;;;;;5029077;28;20232;-78
2022/03/03 10:56:04;;;;;;;38.40;21.53;;;5.70;72.90;;;;;;5039428;28;20225;-77
2022/03/03 10:58:55;;;;;;;43.17;22.37;;;5.70;72.90;;;;;;5039360;28;20293;-77
2022/03/03 11:01:44;;;;;;;40.07;21.33;;;5.70;73.10;;;;;;5016309;28;20237;-76
2022/03/03 11:04:33;;;;;;;39.10;21.03;;;5.80;73.30;;;;;;5014030;28;20225;-76
2022/03/03 11:07:22;;;;;;;37.93;20.70;;;5.70;73.10;;;;;;5022775;28;20232;-76
2022/03/03 11:10:14;;;;;;;38.23;21.80;;;5.40;74.10;;;;;;5020593;28;20598;-76
2022/03/03 11:13:03;;;;;;;43.17;22.43;;;5.30;75.50;;;;;;5005600;28;20217;-76
2022/03/03 11:15:52;;;;;;;40.20;21.20;;;5.30;75.70;;;;;;5012397;28;20218;-76
2022/03/03 11:18:41;;;;;;;40.60;21.10;;;5.20;76.30;;;;;;4998996;28;20279;-76
2022/03/03 11:21:30;;;;;;;40.17;20.60;;;5.10;77.00;;;;;;5011069;28;20225;-76
2022/03/03 11:24:19;;;;;;;43.13;22.03;;;5.00;80.00;;;;;;5011626;28;20218;-76
2022/03/03 11:27:10;;;;;;;40.27;21.83;;;4.90;82.80;;;;;;5018635;28;20222;-77
2022/03/03 11:30:15;;;;;;;41.07;21.57;;;4.90;84.10;;;;;;5021756;28;20248;-76
2022/03/03 11:33:26;;;;;;;40.57;22.00;;;5.00;84.90;;;;;;5010088;28;20343;-78
2022/03/03 11:36:20;;;;;;;38.60;21.00;;;5.00;85.30;;;;;;4999383;28;20231;-76
2022/03/03 11:39:10;;;;;;;40.57;23.30;;;5.00;86.00;;;;;;5019369;28;20593;-75
2022/03/03 11:41:59;;;;;;;40.27;23.07;;;5.20;86.60;;;;;;5024749;28;20324;-77
2022/03/03 11:44:50;;;;;;;39.40;22.33;;;5.30;85.20;;;;;;5020152;28;20749;-77
2022/03/03 11:47:42;;;;;;;37.97;22.20;;;5.40;84.80;;;;;;5019179;28;20216;-77
2022/03/03 11:50:30;;;;;;;40.57;24.07;;;5.40;87.30;;;;;;4999559;28;20251;-77
2022/03/03 11:53:24;;;;;;;45.30;25.53;;;5.30;91.80;;;;;;4999961;28;20225;-74
2022/03/03 11:56:13;;;;;;;42.57;24.73;;;5.30;93.20;;;;;;5010346;28;20240;-78
2022/03/03 11:59:12;;;;;;;45.50;24.87;;;5.20;93.30;;;;;;5005848;28;20796;-78
2022/03/03 12:02:02;;;;;;;45.27;24.77;;;5.20;94.20;;;;;;4990971;28;20228;-76
2022/03/03 12:05:35;;;;;;;43.37;24.47;;;5.20;94.10;;;;;;4997156;28;20237;-83
2022/03/03 12:08:35;;;;;;;43.30;25.17;;;5.80;92.40;;;;;;5016456;28;20229;-79
2022/03/03 12:11:36;;;;;;;44.03;25.80;;;5.80;93.00;;;;;;5011744;28;20228;-86
2022/03/03 12:14:33;;;;;;;41.13;25.73;;;5.50;97.00;;;;;;5018391;28;20312;-79
2022/03/03 12:17:40;;;;;;;41.23;25.20;;;5.40;99.90;;;;;;5012808;28;20506;-74
2022/03/03 12:20:37;;;;;;;45.17;25.37;;;5.20;99.90;;;;;;5027477;28;20218;-73
2022/03/03 12:23:46;;;;;;;44.10;26.83;;;5.10;99.90;;;;;;5004881;28;20233;-73
2022/03/03 12:26:59;;;;;;;44.67;27.37;;;5.00;99.90;;;;;;5024063;28;21271;-72
2022/03/03 12:29:52;;;;;;;48.00;27.30;;;5.20;99.90;;;;;;5020974;28;20910;-76
2022/03/03 12:33:06;;;;;;;45.57;25.73;;;5.30;99.90;;;;;;5022223;28;20224;-77
2022/03/03 12:36:00;;;;;;;44.00;24.10;;;5.10;99.90;;;;;;5026875;28;20237;-88
2022/03/03 12:38:49;;;;;;;48.90;28.13;;;5.00;99.90;;;;;;5017462;28;20217;-82
2022/03/03 12:41:40;;;;;;;57.97;28.20;;;5.20;99.90;;;;;;5028498;28;20252;-79
2022/03/03 12:44:30;;;;;;;42.97;24.93;;;5.30;99.90;;;;;;5003539;28;20221;-90
2022/03/03 12:47:30;;;;;;;47.10;28.10;;;5.20;99.90;;;;;;5026054;28;20255;-86
2022/03/03 12:50:22;;;;;;;48.27;28.73;;;5.20;99.90;;;;;;5001392;28;20233;-88
2022/03/03 12:53:13;;;;;;;42.27;26.77;;;5.00;99.90;;;;;;5026036;28;20319;-87
2022/03/03 12:56:01;;;;;;;43.03;27.70;;;5.20;99.90;;;;;;5030694;28;20276;-86
2022/03/03 12:58:53;;;;;;;46.37;26.63;;;5.40;99.90;;;;;;5024645;28;20217;-81
2022/03/03 13:01:45;;;;;;;43.40;26.80;;;5.20;99.90;;;;;;5006802;28;20227;-81
2022/03/03 13:04:34;;;;;;;40.60;25.53;;;5.10;99.90;;;;;;5002105;28;20537;-82
2022/03/03 13:07:44;;;;;;;46.50;27.07;;;5.20;99.90;;;;;;5009442;28;21004;-79
2022/03/03 13:10:35;;;;;;;40.97;26.50;;;5.20;99.90;;;;;;5002971;28;20243;-78
2022/03/03 13:13:25;;;;;;;36.23;22.23;;;5.10;99.90;;;;;;5008929;28;20218;-76
2022/03/03 13:16:15;;;;;;;46.67;29.03;;;4.80;99.90;;;;;;4998816;28;20315;-78
2022/03/03 13:19:05;;;;;;;43.50;26.50;;;5.00;99.90;;;;;;4994840;28;20721;-78
2022/03/03 13:21:54;;;;;;;45.43;25.33;;;5.10;99.90;;;;;;4992769;28;20320;-81
2022/03/03 13:24:45;;;;;;;39.67;25.23;;;5.20;99.80;;;;;;5007797;28;20380;-78
2022/03/03 13:27:44;;;;;;;37.73;24.27;;;5.30;98.90;;;;;;5012063;28;20250;-74
2022/03/03 13:30:33;;;;;;;41.60;25.40;;;5.30;98.90;;;;;;5003530;28;20235;-71
2022/03/03 13:33:22;;;;;;;40.67;23.80;;;7.50;98.20;;;;;;5015398;28;20280;-72
2022/03/03 13:36:16;;;;;;;37.97;24.43;;;5.50;95.70;;;;;;5010067;28;20243;-70
2022/03/03 13:39:07;;;;;;;36.67;22.77;;;5.50;96.60;;;;;;5016213;28;21030;-76
2022/03/03 13:42:08;;;;;;;36.00;22.40;;;5.20;97.40;;;;;;5007883;28;20214;-78
2022/03/03 13:45:01;;;;;;;37.47;22.63;;;4.70;99.90;;;;;;5019307;28;20793;-78
2022/03/03 13:48:01;;;;;;;37.63;22.43;;;4.70;99.90;;;;;;4996798;28;20236;-76
2022/03/03 13:51:04;;;;;;;37.37;20.93;;;4.60;99.90;;;;;;4990281;28;20248;-75
2022/03/03 13:54:00;;;;;;;33.33;22.07;;;4.60;99.90;;;;;;5002962;28;20220;-75
2022/03/03 13:56:48;;;;;;;34.20;21.53;;;4.50;99.90;;;;;;4992575;28;20302;-72
2022/03/03 13:59:58;;;;;;;34.87;20.97;;;4.60;99.90;;;;;;5021059;28;20223;-72
2022/03/03 14:02:56;;;;;;;31.27;19.40;;;4.70;99.90;;;;;;5033182;28;20232;-73
2022/03/03 14:05:47;;;;;;;34.23;21.40;;;4.60;99.90;;;;;;5022425;28;20361;-73
2022/03/03 14:08:44;;;;;;;31.30;19.07;;;4.70;99.90;;;;;;5033731;28;20369;-72
2022/03/03 14:11:33;;;;;;;42.10;23.60;;;4.60;99.90;;;;;;5041361;28;20218;-73
2022/03/03 14:14:22;;;;;;;31.13;19.40;;;4.70;99.90;;;;;;5033125;28;20640;-72
2022/03/03 14:17:13;;;;;;;32.37;19.97;;;4.30;99.90;;;;;;5021534;28;20540;-74
2022/03/03 14:20:02;;;;;;;31.43;18.50;;;4.60;99.90;;;;;;5035793;28;20225;-75
2022/03/03 14:22:57;;;;;;;29.93;17.50;;;4.50;99.90;;;;;;5034988;28;20727;-72
2022/03/03 14:25:45;;;;;;;30.30;18.53;;;4.20;99.90;;;;;;5033514;28;20240;-74
2022/03/03 14:28:35;;;;;;;24.70;16.53;;;4.20;99.90;;;;;;5036668;28;20331;-73
2022/03/03 14:31:24;;;;;;;30.30;18.03;;;4.10;99.90;;;;;;5023026;28;20240;-68
2022/03/03 14:34:15;;;;;;;29.17;17.57;;;4.00;99.90;;;;;;5038423;28;20226;-74
2022/03/03 14:37:04;;;;;;;26.13;17.20;;;4.20;99.90;;;;;;5041303;28;20225;-77
2022/03/03 14:39:53;;;;;;;28.20;16.37;;;4.30;99.90;;;;;;5042676;28;20222;-74